Skip Navigation Links Skip Navigation Links

Current Weather

Buffalo Niagara Intl, Buffalo, N.Y.

For information only: do not use for flight planning or navigation.
Latest weather
Observation time Friday, January 21, 2022 2:54 PM EST
Local time Friday, January 21, 2022 3:53 PM EST
Flight conditions Visual Meteorological Conditions
Winds
Wind speed calm
Visibility 10 mi.
Sky condition
Ceiling unlimited
Cloud layer few clouds 2,900 ft.
Temperature 17°F
Dewpoint 2°F
Altimeter 30.58 in.Hg
Derived measurements
Relative humidity 51%
Wind chill 17°F
Density altitude -2907 ft.
Sea-level pressure 30.63 in.Hg
Remarks
Automated weather observing station with precipitation discriminator.
METAR KBUF 211954Z 00000KT 10SM FEW029 M08/M17 A3058 RMK AO2 SLP374 T10831167

Settings

Location code

InnerDrive.Weather 4.0.6770.0 Release CLR 4.0.30319.42000
Copyright ©2018 Inner Drive Technology. All rights reserved. Portions Copyright ©1986-2018 David Braverman.

Find weather

Site navigation


Skip Navigation Links

Place info

Page info

PayPal - The safer, easier way to pay online!

Return home.

Copyright ©2022 Inner Drive Technology. Purveyors of fine, hand-crafted computer software. Page printed 2022-01-21T20:53:29 UTC.